createdAt,value
2023-05-22T00:02:00.409Z,100956.53
2023-05-22T00:05:07.099Z,100953.03
2023-05-22T00:08:12.398Z,100956.47
2023-05-22T00:11:17.976Z,100965.66
2023-05-22T00:14:23.660Z,100960.56
2023-05-22T00:17:31.017Z,100953.25
2023-05-22T00:20:39.385Z,100956.38
2023-05-22T00:23:46.086Z,100950.69
2023-05-22T00:26:51.496Z,100959.25
2023-05-22T00:29:57.044Z,100960.06
2023-05-22T00:33:03.024Z,100958.38
2023-05-22T00:36:09.199Z,100958.13
2023-05-22T00:39:14.880Z,100951.94
2023-05-22T00:42:21.454Z,100953.81
2023-05-22T00:45:27.172Z,100952.81
2023-05-22T00:48:33.028Z,100953.91
2023-05-22T00:51:38.256Z,100954.69
2023-05-22T00:54:44.086Z,100956.38
2023-05-22T00:57:52.179Z,100955.88
2023-05-22T01:00:57.596Z,100952.72
2023-05-22T01:04:08.496Z,100953.31
2023-05-22T01:07:13.953Z,100958.84
2023-05-22T01:10:19.827Z,100957.50
2023-05-22T01:14:01.408Z,100961.31
2023-05-22T01:17:35.071Z,100955.38
2023-05-22T01:20:53.186Z,100951.34
2023-05-22T01:24:22.622Z,100953.84
2023-05-22T01:28:03.335Z,100947.78
2023-05-22T01:31:16.143Z,100953.44
2023-05-22T01:34:22.161Z,100946.06
2023-05-22T01:37:28.431Z,100943.88
2023-05-22T01:40:34.703Z,100953.66
2023-05-22T01:43:42.832Z,100956.41
2023-05-22T01:46:48.336Z,100955.63
2023-05-22T01:49:54.015Z,100946.41
2023-05-22T01:53:20.438Z,100953.72
2023-05-22T01:56:41.585Z,100948.28
2023-05-22T01:59:58.932Z,100939.47
2023-05-22T02:03:10.545Z,100947.34
2023-05-22T02:06:16.386Z,100942.28
2023-05-22T02:09:25.619Z,100943.63
2023-05-22T02:12:31.761Z,100937.91
2023-05-22T02:15:37.226Z,100945.50
2023-05-22T02:18:43.316Z,100933.66
2023-05-22T02:21:49.253Z,100930.16
2023-05-22T02:24:55.280Z,100918.59
2023-05-22T02:28:01.525Z,100917.97
2023-05-22T02:31:07.186Z,100917.13
2023-05-22T02:34:12.765Z,100916.31
2023-05-22T02:37:18.038Z,100920.69
2023-05-22T02:40:23.213Z,100923.41
2023-05-22T02:43:28.808Z,100923.47
2023-05-22T02:46:34.878Z,100915.78
2023-05-22T02:49:40.901Z,100922.00
2023-05-22T02:52:46.502Z,100923.38
2023-05-22T02:55:53.520Z,100919.66
2023-05-22T02:58:59.980Z,100917.31
2023-05-22T03:02:06.201Z,100921.06
2023-05-22T03:05:11.305Z,100927.69
2023-05-22T03:08:17.026Z,100925.97
2023-05-22T03:11:22.384Z,100923.78
2023-05-22T03:14:29.421Z,100931.63
2023-05-22T03:17:34.959Z,100928.19
2023-05-22T03:20:40.938Z,100926.38
2023-05-22T03:23:47.569Z,100928.09
2023-05-22T03:26:53.265Z,100932.59
2023-05-22T03:30:09.185Z,100933.44
2023-05-22T03:33:16.942Z,100926.72
2023-05-22T03:36:23.305Z,100930.81
2023-05-22T03:39:28.578Z,100928.94
2023-05-22T03:42:42.155Z,100916.91
2023-05-22T03:45:47.645Z,100923.63
2023-05-22T03:48:52.938Z,100923.06
2023-05-22T03:51:58.698Z,100925.47
2023-05-22T03:55:04.805Z,100930.03
2023-05-22T03:58:10.439Z,100929.50
2023-05-22T04:01:18.233Z,100927.31
2023-05-22T04:04:27.088Z,100940.69
2023-05-22T04:07:32.950Z,100935.88
2023-05-22T04:10:39.164Z,100940.69
2023-05-22T04:13:45.271Z,100944.09
2023-05-22T04:16:50.759Z,100943.88
2023-05-22T04:19:58.578Z,100935.72
2023-05-22T04:23:05.295Z,100941.69
2023-05-22T04:26:11.175Z,100943.91
2023-05-22T04:29:16.728Z,100946.31
2023-05-22T04:32:23.909Z,100951.94
2023-05-22T04:35:29.789Z,100949.50
2023-05-22T04:38:37.838Z,100960.03
2023-05-22T04:41:43.235Z,100955.06
2023-05-22T04:44:48.790Z,100966.88
2023-05-22T04:47:55.051Z,100967.91
2023-05-22T04:51:02.855Z,100965.56
2023-05-22T04:54:08.822Z,100968.03
2023-05-22T04:57:14.280Z,100972.34
2023-05-22T05:00:20.905Z,100966.25
2023-05-22T05:03:27.353Z,100973.81
2023-05-22T05:06:32.608Z,100961.13
2023-05-22T05:09:37.930Z,100966.28
2023-05-22T05:12:44.034Z,100970.75
2023-05-22T05:15:49.652Z,100968.41
2023-05-22T05:18:55.858Z,100959.94
2023-05-22T05:22:01.721Z,100966.25
2023-05-22T05:25:10.937Z,100972.44
2023-05-22T05:28:18.230Z,100977.25
2023-05-22T05:31:24.060Z,100974.41
2023-05-22T05:34:52.056Z,100972.63
2023-05-22T05:38:02.075Z,100972.06
2023-05-22T05:41:08.926Z,100975.28
2023-05-22T05:44:15.972Z,100973.16
2023-05-22T05:47:24.352Z,100971.09
2023-05-22T05:50:29.997Z,100968.00
2023-05-22T05:53:37.284Z,100984.34
2023-05-22T05:56:43.432Z,100974.53
2023-05-22T05:59:49.412Z,100971.31
2023-05-22T06:03:13.889Z,100974.28
2023-05-22T06:06:36.662Z,100969.47
2023-05-22T06:10:09.767Z,100987.66
2023-05-22T06:13:44.373Z,100983.41
2023-05-22T06:16:49.501Z,100985.03
2023-05-22T06:19:56.834Z,100988.69
2023-05-22T06:23:01.926Z,100992.16
2023-05-22T06:26:08.262Z,101000.84
2023-05-22T06:29:17.035Z,100992.72
2023-05-22T06:32:25.083Z,100996.53
2023-05-22T06:35:32.843Z,101001.50
2023-05-22T06:38:38.237Z,101002.00
2023-05-22T06:41:46.809Z,101007.56
2023-05-22T06:44:53.486Z,101005.25
2023-05-22T06:48:01.594Z,101003.00
2023-05-22T06:51:11.878Z,101000.50
2023-05-22T06:54:21.498Z,100996.53
2023-05-22T06:57:34.328Z,101002.59
2023-05-22T07:00:42.730Z,101009.50
2023-05-22T07:04:05.434Z,101010.78
2023-05-22T07:07:15.621Z,101003.03
2023-05-22T07:10:21.572Z,101004.16
2023-05-22T07:13:27.084Z,101003.56
2023-05-22T07:16:33.157Z,101003.47
2023-05-22T07:19:40.097Z,101004.59
2023-05-22T07:22:46.059Z,101003.34
2023-05-22T07:25:51.741Z,101000.22
2023-05-22T07:29:00.224Z,101003.38
2023-05-22T07:32:06.706Z,101005.94
2023-05-22T07:35:13.894Z,101013.28
2023-05-22T07:38:19.365Z,101008.25
2023-05-22T07:41:34.751Z,101008.06
2023-05-22T07:44:40.763Z,101005.78
2023-05-22T07:47:46.320Z,101005.44
2023-05-22T07:50:51.818Z,101005.31
2023-05-22T07:57:08.308Z,101006.25
2023-05-22T08:00:18.230Z,101004.03
2023-05-22T08:03:24.518Z,101012.53
2023-05-22T08:06:31.192Z,101005.47
2023-05-22T08:09:36.566Z,101004.34
2023-05-22T08:12:42.212Z,101000.19
2023-05-22T08:15:47.260Z,101008.06
2023-05-22T08:18:52.549Z,101007.91
2023-05-22T08:21:58.513Z,101005.28
2023-05-22T08:25:04.104Z,100995.50
2023-05-22T08:28:09.893Z,100999.53
2023-05-22T08:31:15.265Z,100997.59
2023-05-22T08:34:20.768Z,100998.50
2023-05-22T08:37:26.437Z,101000.66
2023-05-22T08:40:38.168Z,100998.84
2023-05-22T08:43:43.903Z,100992.56
2023-05-22T08:46:52.041Z,100993.56
2023-05-22T08:49:59.471Z,100994.00
2023-05-22T08:53:07.435Z,100992.88
2023-05-22T08:56:13.237Z,100990.63
2023-05-22T08:59:19.840Z,100989.78
2023-05-22T09:02:26.462Z,100990.56
2023-05-22T09:05:31.892Z,100986.03
2023-05-22T09:08:39.194Z,100985.44
2023-05-22T09:11:44.783Z,100995.25
2023-05-22T09:14:50.774Z,100991.47
2023-05-22T09:17:57.066Z,100987.25
2023-05-22T09:21:08.925Z,100994.91
2023-05-22T09:24:20.946Z,100987.09
2023-05-22T09:27:26.404Z,100978.81
2023-05-22T09:30:36.535Z,100982.81
2023-05-22T09:33:44.778Z,100979.41
2023-05-22T09:36:51.570Z,100980.03
2023-05-22T09:39:56.900Z,100977.81
2023-05-22T09:43:07.117Z,100976.50
2023-05-22T09:46:16.878Z,100982.22
2023-05-22T09:49:22.528Z,100975.69
2023-05-22T09:52:35.207Z,100978.88
2023-05-22T09:55:40.987Z,100975.56
2023-05-22T09:58:48.057Z,100975.31
2023-05-22T10:01:54.475Z,100968.41
2023-05-22T10:05:01.450Z,100974.34
2023-05-22T10:08:14.428Z,100970.91
2023-05-22T10:11:20.077Z,100970.66
2023-05-22T10:14:26.999Z,100971.91
2023-05-22T10:17:34.732Z,100959.16
2023-05-22T10:20:41.620Z,100958.53
2023-05-22T10:23:48.140Z,100960.38
2023-05-22T10:26:54.716Z,100956.09
2023-05-22T10:30:24.905Z,100954.09
2023-05-22T10:34:10.899Z,100949.88
2023-05-22T10:37:57.949Z,100951.31
2023-05-22T10:41:04.842Z,100953.38
2023-05-22T10:44:28.330Z,100956.50
2023-05-22T10:47:34.633Z,100942.63
2023-05-22T10:50:59.859Z,100943.94
2023-05-22T10:54:05.908Z,100936.09
2023-05-22T10:57:34.896Z,100943.16
2023-05-22T11:00:40.132Z,100943.34
2023-05-22T11:04:12.920Z,100947.66
2023-05-22T11:07:21.864Z,100945.63
2023-05-22T11:10:56.448Z,100942.22
2023-05-22T11:14:05.690Z,100934.78
2023-05-22T11:17:31.135Z,100935.84
2023-05-22T11:20:38.253Z,100934.53
2023-05-22T11:24:02.271Z,100920.75
2023-05-22T11:27:08.417Z,100923.41
2023-05-22T11:30:33.222Z,100926.88
2023-05-22T11:33:39.393Z,100927.97
2023-05-22T11:36:45.122Z,100914.88
2023-05-22T11:40:06.571Z,100921.13
2023-05-22T11:43:12.344Z,100918.97
2023-05-22T11:46:18.375Z,100917.81
2023-05-22T11:49:26.912Z,100911.66
2023-05-22T11:52:36.944Z,100908.47
2023-05-22T11:55:43.476Z,100921.47
2023-05-22T11:58:50.149Z,100911.78
2023-05-22T12:01:55.970Z,100912.47
2023-05-22T12:05:01.363Z,100911.28
2023-05-22T12:08:06.924Z,100912.69
2023-05-22T12:11:13.016Z,100911.75
2023-05-22T12:14:18.756Z,100905.72
2023-05-22T12:17:24.558Z,100907.56
2023-05-22T12:20:31.308Z,100909.38
2023-05-22T12:23:37.429Z,100912.44
2023-05-22T12:26:50.592Z,100898.44
2023-05-22T12:29:56.821Z,100906.97
2023-05-22T12:33:02.488Z,100901.84
2023-05-22T12:36:08.613Z,100908.03
2023-05-22T12:39:18.463Z,100901.03
2023-05-22T12:42:26.484Z,100898.22
2023-05-22T12:45:31.777Z,100911.78
2023-05-22T12:48:37.375Z,100902.53
2023-05-22T12:51:43.109Z,100895.69
2023-05-22T12:54:48.694Z,100899.34
2023-05-22T12:57:54.235Z,100895.09
2023-05-22T13:00:59.994Z,100885.28
2023-05-22T13:04:05.273Z,100886.75
2023-05-22T13:07:10.906Z,100888.38
2023-05-22T13:10:16.678Z,100876.66
2023-05-22T13:13:22.304Z,100872.16
2023-05-22T13:16:28.096Z,100875.53
2023-05-22T13:19:33.815Z,100878.34
2023-05-22T13:22:39.159Z,100868.06
2023-05-22T13:25:44.597Z,100864.50
2023-05-22T13:28:50.409Z,100870.47
2023-05-22T13:31:56.139Z,100860.22
2023-05-22T13:35:01.720Z,100862.25
2023-05-22T13:38:07.467Z,100848.56
2023-05-22T13:41:13.119Z,100850.56
2023-05-22T13:44:19.275Z,100852.97
2023-05-22T13:47:26.373Z,100849.28
2023-05-22T13:50:32.412Z,100841.66
2023-05-22T13:53:38.737Z,100837.47
2023-05-22T13:56:44.643Z,100839.69
2023-05-22T13:59:49.636Z,100832.81
2023-05-22T14:02:54.810Z,100821.28
2023-05-22T14:06:00.158Z,100827.81
2023-05-22T14:09:07.550Z,100821.41
2023-05-22T14:12:13.169Z,100821.75
2023-05-22T14:15:18.976Z,100819.28
2023-05-22T14:18:24.423Z,100814.53
2023-05-22T14:21:31.170Z,100811.22
2023-05-22T14:24:36.663Z,100822.03
2023-05-22T14:27:42.312Z,100812.41
2023-05-22T14:30:47.828Z,100809.56
2023-05-22T14:33:53.088Z,100815.78
2023-05-22T14:36:58.731Z,100807.31
2023-05-22T14:40:05.306Z,100798.91
2023-05-22T14:43:10.805Z,100796.75
2023-05-22T14:46:16.573Z,100785.97
2023-05-22T14:49:22.326Z,100795.41
2023-05-22T14:52:28.383Z,100798.38
2023-05-22T14:55:34.133Z,100789.28
2023-05-22T14:58:40.067Z,100789.44
2023-05-22T15:01:50.467Z,100783.47
2023-05-22T15:04:56.245Z,100791.28
2023-05-22T15:08:01.247Z,100783.63
2023-05-22T15:11:06.580Z,100782.56
2023-05-22T15:14:12.156Z,100775.34
2023-05-22T15:17:17.996Z,100776.78
2023-05-22T15:20:23.546Z,100770.41
2023-05-22T15:23:29.257Z,100766.16
2023-05-22T15:26:35.012Z,100767.56
2023-05-22T15:29:40.360Z,100764.50
2023-05-22T15:32:45.949Z,100769.06
2023-05-22T15:35:52.159Z,100761.09
2023-05-22T15:38:57.489Z,100759.34
2023-05-22T15:42:06.867Z,100755.03
2023-05-22T15:45:12.567Z,100756.81
2023-05-22T15:48:18.169Z,100755.66
2023-05-22T15:51:24.021Z,100757.69
2023-05-22T15:54:29.541Z,100750.94
2023-05-22T15:57:34.639Z,100751.47
2023-05-22T16:00:41.524Z,100754.00
2023-05-22T16:03:47.333Z,100753.13
2023-05-22T16:06:53.159Z,100746.06
2023-05-22T16:09:58.769Z,100756.91
2023-05-22T16:13:05.681Z,100765.47
2023-05-22T16:16:11.203Z,100748.38
2023-05-22T16:19:16.503Z,100750.94
2023-05-22T19:47:13.950Z,100899.09
2023-05-22T19:50:19.241Z,100908.56
2023-05-22T19:53:24.638Z,100902.84
2023-05-22T19:56:30.501Z,100903.53
2023-05-22T19:59:36.946Z,100905.88
2023-05-22T20:02:42.757Z,100910.50
2023-05-22T20:05:48.691Z,100904.78
2023-05-22T20:08:54.423Z,100909.66
2023-05-22T20:11:59.950Z,100906.38
2023-05-22T20:15:07.153Z,100910.28
2023-05-22T20:18:12.777Z,100913.09
2023-05-22T20:21:18.395Z,100908.41
2023-05-22T20:24:27.191Z,100919.38
2023-05-22T20:27:32.503Z,100919.78
2023-05-22T20:30:37.890Z,100925.22
2023-05-22T20:33:43.498Z,100927.63
2023-05-22T20:36:49.499Z,100941.00
2023-05-22T20:39:55.332Z,100916.47
2023-05-22T20:43:02.922Z,100921.88
2023-05-22T20:46:08.285Z,100924.00
2023-05-22T20:49:13.766Z,100922.94
2023-05-22T20:52:20.068Z,100924.19
2023-05-22T20:55:25.800Z,100923.91
2023-05-22T20:58:31.587Z,100925.91
2023-05-22T21:01:37.002Z,100932.34
2023-05-22T21:04:42.599Z,100932.19
2023-05-22T21:07:48.317Z,100929.09
2023-05-22T21:10:54.620Z,100934.34
2023-05-22T21:14:00.130Z,100926.53
2023-05-22T21:17:05.790Z,100929.13
2023-05-22T21:20:11.958Z,100929.31
2023-05-22T21:23:17.320Z,100934.56
2023-05-22T21:26:23.312Z,100941.28
2023-05-22T21:29:28.880Z,100939.78
2023-05-22T21:32:34.762Z,100936.97
2023-05-22T21:35:40.199Z,100933.66
2023-05-22T21:38:46.749Z,100944.00
2023-05-22T21:41:53.161Z,100935.97
2023-05-22T21:44:58.985Z,100931.84
2023-05-22T21:48:05.193Z,100935.06
2023-05-22T21:51:10.834Z,100934.56
2023-05-22T21:54:16.354Z,100930.84
2023-05-22T21:57:22.052Z,100935.47
2023-05-22T22:00:28.846Z,100942.66
2023-05-22T22:03:34.773Z,100935.56
2023-05-22T22:06:40.263Z,100941.47
2023-05-22T22:09:46.016Z,100941.25
2023-05-22T22:12:51.402Z,100936.81
2023-05-22T22:15:57.348Z,100944.22
2023-05-22T22:19:03.342Z,100935.84
2023-05-22T22:22:09.342Z,100933.63
2023-05-22T22:25:14.658Z,100937.38
2023-05-22T22:28:19.951Z,100931.22
2023-05-22T22:31:26.504Z,100931.88
2023-05-22T22:34:31.861Z,100929.41
2023-05-22T22:37:37.887Z,100930.75
2023-05-22T22:40:43.635Z,100932.13
2023-05-22T22:43:48.970Z,100929.25
2023-05-22T22:46:55.999Z,100923.38
2023-05-22T22:50:01.226Z,100926.53
2023-05-22T22:53:06.704Z,100914.66
2023-05-22T22:56:12.480Z,100929.53
2023-05-22T22:59:18.189Z,100923.50
2023-05-22T23:02:23.882Z,100931.72
2023-05-22T23:05:29.621Z,100924.41
2023-05-22T23:08:35.261Z,100915.09
2023-05-22T23:11:40.764Z,100920.09
2023-05-22T23:14:46.253Z,100920.63
2023-05-22T23:17:52.119Z,100918.13
2023-05-22T23:20:57.249Z,100928.53
2023-05-22T23:24:07.335Z,100933.94
2023-05-22T23:27:12.705Z,100929.63
2023-05-22T23:30:18.356Z,100931.22
2023-05-22T23:33:23.926Z,100931.78
2023-05-22T23:36:29.767Z,100933.97
2023-05-22T23:39:35.593Z,100935.50
2023-05-22T23:42:41.603Z,100929.94
2023-05-22T23:45:47.124Z,100932.03
2023-05-22T23:48:52.609Z,100930.28
2023-05-22T23:51:58.016Z,100920.38
2023-05-22T23:55:03.677Z,100922.31
2023-05-22T23:58:09.661Z,100926.94
